Date,TemperatureHighF,TemperatureAvgF,TemperatureLowF,DewpointHighF,DewpointAvgF,DewpointLowF,HumidityHigh,HumidityAvg,HumidityLow,PressureMaxIn,PressureMinIn,WindSpeedMaxMPH,WindSpeedAvgMPH,GustSpeedMaxMPH,PrecipitationSumIn
2014-4-1,72.2,51.3,33.3,43.0,35.9,31.0,91,61,30,30.17,29.95,6,1,12,0.00
2014-4-2,74.9,57.2,38.9,46.0,40.3,37.0,93,60,28,30.07,29.96,5,1,7,0.00
2014-4-3,69.2,58.7,49.6,53.0,48.7,44.0,97,72,46,30.14,29.89,3,0,4,0.05
2014-4-4,67.1,56.1,47.6,56.0,49.7,43.0,91,80,64,29.89,29.64,3,0,5,0.00
2014-4-5,64.8,56.5,42.1,52.0,34.2,27.0,84,45,27,30.12,29.70,4,1,11,0.00
2014-4-6,61.2,46.0,28.2,32.0,26.9,20.0,90,53,22,30.25,30.11,6,0,8,0.00
2014-4-7,48.6,43.3,38.8,45.0,39.9,32.0,97,89,53,30.15,29.64,2,0,6,0.87
2014-4-8,67.3,55.0,45.2,53.0,44.0,37.0,98,71,36,29.69,29.50,6,1,11,0.01
2014-4-9,67.5,52.9,38.5,43.0,36.8,32.0,95,60,30,30.06,29.67,5,1,9,0.00
2014-4-10,71.9,55.5,33.0,39.0,35.0,31.0,95,54,25,30.22,30.04,13,3,20,0.00
2014-4-11,80.4,67.8,55.8,49.0,40.8,36.0,65,39,25,30.09,29.91,12,3,18,0.00
2014-4-12,78.5,64.8,47.7,53.0,48.3,42.0,92,59,32,30.23,30.02,4,1,13,0.00
2014-4-13,82.8,67.7,48.0,56.0,52.9,46.0,96,63,37,30.14,29.98,14,3,21,0.00
2014-4-14,74.9,69.7,63.0,60.0,55.7,53.0,80,62,49,29.99,29.77,18,4,26,0.00
2014-4-15,70.6,57.5,37.4,65.0,54.2,28.0,95,89,68,30.02,29.53,6,2,16,1.99
2014-4-16,50.4,38.3,28.3,28.0,22.2,16.0,85,56,27,30.51,30.04,5,1,8,0.00
2014-4-17,58.5,42.8,27.7,35.0,28.9,23.0,89,62,33,30.62,30.48,3,1,9,0.00
2014-4-18,59.9,45.1,32.5,41.0,36.2,31.0,94,74,45,30.54,30.26,4,0,6,0.00
2014-4-19,66.7,53.2,40.4,46.0,41.7,38.0,93,68,40,30.27,30.19,4,0,8,0.00
2014-4-20,67.8,53.7,40.9,43.0,36.8,31.0,86,57,28,30.38,30.26,5,1,13,0.00
2014-4-21,73.6,53.5,32.2,41.0,32.1,25.0,89,52,17,30.26,29.88,4,0,6,0.00
2014-4-22,76.6,60.9,43.3,55.0,46.2,38.0,87,61,42,29.88,29.57,4,0,9,0.00
2014-4-23,65.4,55.6,43.0,50.0,37.1,31.0,93,55,30,29.99,29.63,6,1,12,0.00
2014-4-24,67.7,52.1,37.5,38.0,29.2,18.0,79,46,15,30.13,29.97,4,0,7,0.00
2014-4-25,60.9,52.0,40.6,57.0,46.0,34.0,97,81,55,30.00,29.68,6,0,12,0.25
2014-4-26,78.9,61.9,42.0,53.0,45.5,41.0,97,61,30,29.91,29.76,6,1,14,0.00
2014-4-27,74.0,59.9,47.7,48.0,43.1,37.0,84,56,38,30.06,29.86,6,0,6,0.00
2014-4-28,61.3,52.0,46.4,51.0,45.6,39.0,96,80,47,30.07,29.95,2,0,4,0.26
2014-4-29,51.8,48.7,47.7,51.0,46.8,-99.9,98,96,96,30.17,30.00,4,-10,6,0.55
2014-4-30,58.6,53.4,49.0,58.0,53.0,49.0,99,98,96,30.11,29.83,3,0,6,3.78